Time;durP1;ratioP1;P1;durP2;ratioP2;P2;SDS_P1;SDS_P2;PMS_P1;PMS_P2;Temp;Humidity;BMP_temperature;BMP_pressure;BME280_temperature;BME280_humidity;BME280_pressure;Samples;Min_cycle;Max_cycle;Signal;HPM_P1;HPM_P2
2022/01/17 00:00:15;;;;;;;9.60;7.00;;;3.50;99.90;;;;;;4933565;29;20779;-76
2022/01/17 00:02:40;;;;;;;13.93;6.10;;;3.50;99.90;;;;;;4941447;29;20952;-74
2022/01/17 00:05:08;;;;;;;7.10;6.23;;;3.50;99.90;;;;;;4940025;29;20441;-74
2022/01/17 00:07:34;;;;;;;11.00;6.03;;;3.50;99.90;;;;;;4953724;28;20878;-74
2022/01/17 00:10:00;;;;;;;5.80;5.20;;;3.60;99.90;;;;;;4953650;28;20897;-75
2022/01/17 00:12:27;;;;;;;7.70;5.23;;;3.60;99.90;;;;;;4953629;28;20431;-73
2022/01/17 00:14:56;;;;;;;8.57;6.47;;;3.60;99.90;;;;;;4953205;28;20416;-74
2022/01/17 00:19:52;;;;;;;8.80;5.80;;;3.70;99.90;;;;;;4953353;28;20420;-73
2022/01/17 00:22:20;;;;;;;10.00;7.10;;;3.70;99.90;;;;;;4953333;28;20203;-74
2022/01/17 00:24:46;;;;;;;7.90;5.93;;;3.80;99.90;;;;;;4953214;28;20426;-74
2022/01/17 00:27:12;;;;;;;10.10;6.33;;;3.80;99.90;;;;;;4953142;28;20468;-74
2022/01/17 00:29:38;;;;;;;9.40;6.17;;;3.70;99.90;;;;;;4950288;28;20492;-74
2022/01/17 00:32:04;;;;;;;9.67;6.60;;;3.70;99.90;;;;;;4952929;28;20225;-74
2022/01/17 00:34:30;;;;;;;9.57;6.63;;;3.70;99.90;;;;;;4953310;28;20188;-74
2022/01/17 00:36:56;;;;;;;9.83;6.10;;;3.70;99.90;;;;;;4952994;28;20414;-75
2022/01/17 00:39:21;;;;;;;9.40;7.20;;;3.70;99.90;;;;;;4953279;28;20236;-74
2022/01/17 00:41:47;;;;;;;9.67;7.00;;;3.70;99.90;;;;;;4953048;28;20294;-74
2022/01/17 00:44:15;;;;;;;12.40;6.97;;;3.70;99.90;;;;;;4952939;28;20205;-74
2022/01/17 00:46:41;;;;;;;10.37;6.50;;;3.70;99.90;;;;;;4953231;28;20288;-74
2022/01/17 00:49:06;;;;;;;8.40;6.73;;;3.60;99.90;;;;;;4952995;28;20509;-74
2022/01/17 00:51:32;;;;;;;13.30;8.20;;;3.60;99.90;;;;;;4955170;28;20193;-76
2022/01/17 00:53:58;;;;;;;13.20;8.57;;;3.60;99.90;;;;;;4956583;28;20177;-73
2022/01/17 00:56:23;;;;;;;12.17;8.33;;;3.60;99.90;;;;;;4957154;28;20310;-74
2022/01/17 00:58:50;;;;;;;13.93;9.80;;;3.50;99.90;;;;;;4956908;28;20599;-74
2022/01/17 05:32:15;;;;;;;32.97;18.10;;;3.00;99.90;;;;;;5326414;23;20268;-76
2022/01/17 05:34:41;;;;;;;31.10;16.87;;;2.90;99.90;;;;;;4946690;29;20419;-76
2022/01/17 05:37:11;;;;;;;31.43;18.20;;;3.00;99.90;;;;;;4952383;28;20192;-76
2022/01/17 05:39:37;;;;;;;28.20;17.60;;;3.00;99.90;;;;;;4951975;28;20709;-75
2022/01/17 05:42:04;;;;;;;29.13;17.17;;;3.10;99.90;;;;;;4955867;28;20438;-76
2022/01/17 05:44:30;;;;;;;30.13;17.50;;;3.10;99.90;;;;;;4953638;28;20503;-73
2022/01/17 05:46:56;;;;;;;26.30;16.23;;;3.10;99.90;;;;;;4953733;28;20813;-73
2022/01/17 05:49:22;;;;;;;22.67;14.77;;;3.10;99.90;;;;;;4954408;29;20436;-72
2022/01/17 05:51:47;;;;;;;24.37;14.10;;;3.10;99.90;;;;;;4953598;28;20719;-72
2022/01/17 05:54:13;;;;;;;28.53;13.00;;;3.10;99.90;;;;;;4953459;29;20524;-73
2022/01/17 05:56:39;;;;;;;20.23;12.33;;;3.10;99.90;;;;;;4951589;29;20191;-73
2022/01/17 05:59:04;;;;;;;23.17;13.40;;;3.10;99.90;;;;;;4954811;29;20275;-73
2022/01/17 06:01:30;;;;;;;24.50;13.10;;;3.10;99.90;;;;;;4953130;28;20208;-71
2022/01/17 06:03:55;;;;;;;19.73;11.43;;;3.20;99.90;;;;;;4955044;29;20183;-73
2022/01/17 06:06:21;;;;;;;19.13;11.93;;;3.20;99.90;;;;;;4953872;29;20214;-72
2022/01/17 06:08:47;;;;;;;14.30;10.37;;;3.30;99.90;;;;;;4949151;29;20239;-74
2022/01/17 06:11:12;;;;;;;14.30;10.47;;;3.30;99.90;;;;;;4955270;28;20212;-73
2022/01/17 06:13:38;;;;;;;15.57;9.33;;;3.30;99.90;;;;;;4953535;28;20185;-73
2022/01/17 06:16:04;;;;;;;18.50;9.40;;;3.30;99.90;;;;;;4955381;29;20327;-73
2022/01/17 06:18:29;;;;;;;13.97;10.27;;;3.40;99.90;;;;;;4950762;29;20198;-75
2022/01/17 06:20:55;;;;;;;12.97;8.77;;;3.40;99.90;;;;;;4954541;28;20453;-76
2022/01/17 06:23:21;;;;;;;11.70;7.60;;;3.40;99.90;;;;;;4951090;29;20241;-75
2022/01/17 06:25:46;;;;;;;15.03;8.40;;;3.40;99.90;;;;;;4955042;29;20197;-76
2022/01/17 06:28:12;;;;;;;12.77;8.30;;;3.40;99.90;;;;;;4954414;29;20556;-73
2022/01/17 06:30:37;;;;;;;13.00;8.40;;;3.50;99.90;;;;;;4952134;28;20198;-73
2022/01/17 06:33:03;;;;;;;10.93;8.60;;;3.50;99.90;;;;;;4948049;29;20217;-72
2022/01/17 06:35:29;;;;;;;9.73;7.50;;;3.50;99.90;;;;;;4952864;29;20272;-73
2022/01/17 06:37:55;;;;;;;12.00;7.90;;;3.60;99.90;;;;;;4954972;29;20208;-72
2022/01/17 06:40:20;;;;;;;15.20;7.97;;;3.60;99.90;;;;;;4951152;29;20485;-73
2022/01/17 06:42:46;;;;;;;9.70;8.07;;;3.60;99.90;;;;;;4953895;28;20608;-71
2022/01/17 06:45:14;;;;;;;10.27;7.20;;;3.70;99.90;;;;;;4952616;28;20341;-72
2022/01/17 06:47:40;;;;;;;9.83;7.73;;;3.70;99.90;;;;;;4954616;28;20964;-72
2022/01/17 06:50:06;;;;;;;11.60;8.30;;;3.60;99.90;;;;;;4953813;29;20416;-72
2022/01/17 06:52:32;;;;;;;11.53;8.33;;;3.70;99.90;;;;;;4950570;28;20461;-72
2022/01/17 06:54:58;;;;;;;10.63;7.57;;;3.70;99.90;;;;;;4952409;29;20857;-73
2022/01/17 06:57:24;;;;;;;10.20;7.13;;;3.70;99.90;;;;;;4951597;29;20489;-72
2022/01/17 06:59:50;;;;;;;10.30;6.97;;;3.70;99.90;;;;;;4953283;29;20218;-73
2022/01/17 07:02:16;;;;;;;10.77;7.90;;;3.70;99.90;;;;;;4952471;28;20496;-74
2022/01/17 07:04:41;;;;;;;10.37;7.60;;;3.70;99.90;;;;;;4952226;29;20235;-72
2022/01/17 07:07:07;;;;;;;14.80;8.47;;;3.70;99.90;;;;;;4952833;29;20675;-73
2022/01/17 07:09:33;;;;;;;12.70;7.60;;;3.70;99.90;;;;;;4949445;29;20193;-73
2022/01/17 07:11:59;;;;;;;13.37;8.80;;;3.80;99.90;;;;;;4954200;28;20210;-73
2022/01/17 07:14:27;;;;;;;10.97;8.40;;;3.80;99.90;;;;;;4950213;28;20208;-73
2022/01/17 07:16:52;;;;;;;15.60;8.97;;;3.80;99.90;;;;;;4954330;29;20435;-73
2022/01/17 07:19:18;;;;;;;10.50;6.27;;;3.80;99.90;;;;;;4950265;29;20952;-73
2022/01/17 07:21:44;;;;;;;9.30;7.20;;;3.80;99.90;;;;;;4954156;28;20493;-74
2022/01/17 07:24:10;;;;;;;7.87;6.03;;;3.80;99.90;;;;;;4947978;29;20203;-75
2022/01/17 07:26:35;;;;;;;9.60;7.00;;;3.80;99.90;;;;;;4954198;29;20820;-72
2022/01/17 07:29:02;;;;;;;8.30;6.87;;;3.80;99.90;;;;;;4953531;29;20222;-73
2022/01/17 07:31:28;;;;;;;9.70;7.40;;;3.90;99.90;;;;;;4951836;28;20765;-74
2022/01/17 07:33:53;;;;;;;10.60;8.17;;;3.90;99.90;;;;;;4948804;29;20540;-74
2022/01/17 07:36:20;;;;;;;21.07;7.60;;;3.90;99.90;;;;;;4951906;29;20214;-73
2022/01/17 07:38:46;;;;;;;9.13;6.43;;;3.90;99.90;;;;;;4950855;29;20271;-73
2022/01/17 07:41:12;;;;;;;8.23;5.27;;;4.00;99.90;;;;;;4951759;29;20470;-74
2022/01/17 07:43:38;;;;;;;7.00;5.60;;;3.90;99.90;;;;;;4953742;29;20774;-74
2022/01/17 07:46:17;;;;;;;7.27;5.63;;;4.00;99.90;;;;;;4951883;28;20197;-72
2022/01/17 07:51:25;;;;;;;4.13;3.63;;;4.00;99.90;;;;;;4953296;28;20426;-72
2022/01/17 07:53:51;;;;;;;6.43;4.10;;;4.10;99.90;;;;;;4951051;29;20467;-75
2022/01/17 07:56:17;;;;;;;4.80;4.40;;;4.00;99.90;;;;;;4954044;29;20380;-74
2022/01/17 07:58:42;;;;;;;4.57;4.00;;;4.10;99.90;;;;;;4949456;29;20431;-75
2022/01/17 08:01:08;;;;;;;7.20;5.23;;;4.10;99.90;;;;;;4953036;28;20201;-75
2022/01/17 08:03:34;;;;;;;7.10;4.17;;;4.20;99.90;;;;;;4951242;29;20186;-76
2022/01/17 08:06:00;;;;;;;6.40;4.53;;;4.20;99.90;;;;;;4953453;28;20180;-76
2022/01/17 08:08:26;;;;;;;6.30;5.23;;;4.20;99.90;;;;;;4951760;29;20329;-74
2022/01/17 08:10:51;;;;;;;6.10;4.87;;;4.30;99.90;;;;;;4950799;28;20467;-75
2022/01/17 08:13:18;;;;;;;7.63;5.10;;;4.30;99.90;;;;;;4953445;28;20182;-75
2022/01/17 08:15:45;;;;;;;4.67;4.27;;;4.40;99.90;;;;;;4951757;28;20529;-75
2022/01/17 08:18:11;;;;;;;6.47;5.10;;;4.40;99.90;;;;;;4953400;29;20457;-75
2022/01/17 08:20:37;;;;;;;5.70;4.73;;;4.40;99.90;;;;;;4949361;28;20811;-76
2022/01/17 08:23:03;;;;;;;4.23;3.80;;;4.40;99.90;;;;;;4953199;28;20435;-76
2022/01/17 08:25:29;;;;;;;3.90;3.60;;;4.50;99.90;;;;;;4949170;29;20862;-75
2022/01/17 08:27:55;;;;;;;8.77;4.40;;;4.60;99.90;;;;;;4953031;29;20206;-75
2022/01/17 08:30:20;;;;;;;8.20;4.87;;;4.60;99.90;;;;;;4953049;29;20418;-75
2022/01/17 08:32:46;;;;;;;6.40;4.60;;;4.50;99.90;;;;;;4945171;28;20218;-74
2022/01/17 08:35:12;;;;;;;4.47;4.07;;;4.50;99.90;;;;;;4951036;29;20196;-75
2022/01/17 08:37:37;;;;;;;5.70;4.13;;;4.60;99.90;;;;;;4951103;29;20275;-73
2022/01/17 08:40:05;;;;;;;4.43;4.03;;;4.70;99.90;;;;;;4946628;29;20263;-75
2022/01/17 08:42:36;;;;;;;5.50;4.23;;;4.80;99.90;;;;;;4948839;28;20217;-75
2022/01/17 08:45:03;;;;;;;5.63;4.93;;;4.80;99.90;;;;;;4952827;28;20431;-75
2022/01/17 08:47:28;;;;;;;5.80;4.50;;;4.80;99.90;;;;;;4950870;29;20469;-75
2022/01/17 08:49:54;;;;;;;5.03;4.57;;;5.00;99.90;;;;;;4952938;29;20454;-75
2022/01/17 08:52:20;;;;;;;5.90;4.90;;;5.30;99.90;;;;;;4950578;28;20665;-75
2022/01/17 08:54:46;;;;;;;6.50;4.30;;;5.50;99.90;;;;;;4946370;29;20740;-75
2022/01/17 08:57:12;;;;;;;4.60;4.10;;;5.50;99.90;;;;;;4953015;29;20491;-75
2022/01/17 08:59:38;;;;;;;4.60;3.60;;;5.60;99.90;;;;;;4948901;29;20275;-74
2022/01/17 09:02:04;;;;;;;4.37;3.90;;;5.60;99.90;;;;;;4952500;28;20470;-75
2022/01/17 09:04:30;;;;;;;5.67;4.40;;;5.60;99.90;;;;;;4950774;28;20187;-74
2022/01/17 09:06:55;;;;;;;4.83;3.97;;;5.70;99.90;;;;;;4950165;29;21041;-75
2022/01/17 09:09:21;;;;;;;4.30;3.90;;;5.70;99.90;;;;;;4950597;29;20192;-74
2022/01/17 09:11:46;;;;;;;3.53;2.90;;;5.70;99.90;;;;;;4951318;28;20206;-74
2022/01/17 09:14:12;;;;;;;4.43;3.93;;;5.60;99.90;;;;;;4956201;29;20179;-73
2022/01/17 09:16:38;;;;;;;4.43;3.73;;;5.60;99.90;;;;;;4950902;29;20192;-74
2022/01/17 09:19:05;;;;;;;4.40;3.70;;;5.70;99.90;;;;;;4953273;29;20681;-72
2022/01/17 09:21:31;;;;;;;4.13;3.73;;;5.70;99.90;;;;;;4953520;28;20724;-75
2022/01/17 09:23:58;;;;;;;4.80;3.93;;;5.80;99.90;;;;;;4952859;29;20614;-74
2022/01/17 09:26:27;;;;;;;4.17;2.80;;;5.90;99.90;;;;;;4954662;28;20417;-70
2022/01/17 09:28:54;;;;;;;3.60;3.00;;;6.00;99.90;;;;;;4950388;28;20562;-70
2022/01/17 09:31:20;;;;;;;3.23;2.87;;;6.10;99.90;;;;;;4955811;28;20455;-70
2022/01/17 09:33:46;;;;;;;4.27;3.20;;;6.10;99.90;;;;;;4951025;29;20821;-72
2022/01/17 09:36:12;;;;;;;6.73;2.60;;;6.20;99.90;;;;;;4954801;29;20871;-73
2022/01/17 09:38:38;;;;;;;4.43;3.30;;;6.20;99.90;;;;;;4954000;29;20428;-73
2022/01/17 09:41:04;;;;;;;3.50;3.20;;;6.20;99.90;;;;;;4952908;28;20702;-73
2022/01/17 09:43:30;;;;;;;3.77;3.07;;;6.20;99.90;;;;;;4953532;28;20186;-72
2022/01/17 09:45:57;;;;;;;2.90;2.70;;;6.20;99.90;;;;;;4954114;29;20438;-73
2022/01/17 09:48:34;;;;;;;2.00;1.90;;;6.20;99.90;;;;;;4955677;28;20203;-73
2022/01/17 09:51:15;;;;;;;4.10;2.90;;;6.20;99.90;;;;;;4951465;28;20477;-73
2022/01/17 09:53:42;;;;;;;2.50;2.30;;;6.20;99.90;;;;;;4937248;29;20472;-73
2022/01/17 09:56:08;;;;;;;2.50;2.23;;;6.20;99.90;;;;;;4940907;29;20446;-73
2022/01/17 09:58:39;;;;;;;2.53;2.33;;;6.20;99.90;;;;;;4955713;29;20493;-73
2022/01/17 10:01:06;;;;;;;2.97;2.67;;;6.30;99.90;;;;;;4954183;28;20497;-73
2022/01/17 10:03:33;;;;;;;2.87;2.67;;;6.40;99.90;;;;;;4952873;29;20442;-73
2022/01/17 10:05:59;;;;;;;1.80;1.70;;;6.50;99.90;;;;;;4955231;29;20411;-73
2022/01/17 10:08:25;;;;;;;2.00;1.90;;;6.60;99.90;;;;;;4952674;29;20854;-73
2022/01/17 10:10:59;;;;;;;2.10;2.00;;;6.70;99.90;;;;;;4954002;28;20278;-73
2022/01/17 10:13:27;;;;;;;2.73;2.53;;;6.80;99.90;;;;;;4953123;28;20402;-74
2022/01/17 10:16:02;;;;;;;3.10;2.13;;;7.00;99.90;;;;;;4950906;29;20440;-74
2022/01/17 10:18:31;;;;;;;2.67;1.80;;;7.10;99.90;;;;;;4952919;28;20393;-73
2022/01/17 10:21:10;;;;;;;2.40;2.10;;;7.10;99.90;;;;;;4954802;28;20501;-73
2022/01/17 10:35:23;;;;;;;2.40;2.20;;;7.00;99.90;;;;;;4951617;29;20451;-73
2022/01/17 10:38:09;;;;;;;2.60;2.30;;;7.00;99.90;;;;;;4951908;29;20852;-72
2022/01/17 10:40:39;;;;;;;1.90;1.70;;;7.10;99.90;;;;;;4952773;28;21222;-72
2022/01/17 10:43:06;;;;;;;4.80;2.90;;;7.10;99.90;;;;;;4952651;28;20919;-74
2022/01/17 10:45:41;;;;;;;4.43;4.00;;;7.10;99.90;;;;;;4953459;29;20426;-73
2022/01/17 10:48:07;;;;;;;6.23;3.80;;;6.90;99.90;;;;;;4948753;29;20545;-73
2022/01/17 10:50:41;;;;;;;5.60;4.47;;;6.80;99.90;;;;;;4954611;28;20416;-73
2022/01/17 10:53:09;;;;;;;5.30;4.80;;;6.60;99.90;;;;;;4952478;29;20712;-73
2022/01/17 10:55:57;;;;;;;5.60;5.10;;;6.40;99.90;;;;;;4950037;29;20437;-74
2022/01/17 10:58:32;;;;;;;4.03;3.60;;;6.30;99.90;;;;;;4951989;29;20460;-72
2022/01/17 11:01:04;;;;;;;6.93;4.80;;;6.30;99.90;;;;;;4952916;28;20467;-72
2022/01/17 11:03:33;;;;;;;7.33;4.97;;;6.20;99.90;;;;;;4952109;28;20430;-72
2022/01/17 11:06:03;;;;;;;8.57;5.07;;;6.20;99.90;;;;;;4954097;28;20416;-73
2022/01/17 11:08:32;;;;;;;7.17;5.20;;;6.10;99.90;;;;;;4953784;28;20467;-74
2022/01/17 11:10:59;;;;;;;7.10;5.60;;;6.00;99.90;;;;;;4950450;28;20552;-73
2022/01/17 11:13:29;;;;;;;6.07;5.20;;;6.10;99.90;;;;;;4954211;28;20474;-73
2022/01/17 11:15:58;;;;;;;8.70;5.70;;;6.00;99.90;;;;;;4952185;29;20451;-72
2022/01/17 11:18:27;;;;;;;10.00;6.30;;;6.00;99.90;;;;;;4953971;28;20399;-74
2022/01/17 11:21:05;;;;;;;7.87;5.60;;;5.80;99.90;;;;;;4950722;28;20470;-73
2022/01/17 11:23:31;;;;;;;7.00;5.77;;;5.70;99.90;;;;;;4952351;29;20419;-73
2022/01/17 11:25:57;;;;;;;6.60;5.90;;;5.70;99.90;;;;;;4950037;29;20444;-73
2022/01/17 11:28:26;;;;;;;10.33;5.33;;;5.70;99.90;;;;;;4953699;29;20210;-73
2022/01/17 11:30:55;;;;;;;8.47;5.50;;;5.50;99.90;;;;;;4950929;28;20199;-73
2022/01/17 11:33:22;;;;;;;6.17;5.50;;;5.40;99.90;;;;;;4940490;29;20486;-72
2022/01/17 11:35:51;;;;;;;7.93;5.63;;;5.40;99.90;;;;;;4950821;28;20951;-72
2022/01/17 11:38:29;;;;;;;6.30;5.40;;;5.30;99.90;;;;;;4951581;28;20915;-73
2022/01/17 11:40:55;;;;;;;4.63;4.13;;;5.30;99.90;;;;;;4951994;28;20459;-72
2022/01/17 11:43:27;;;;;;;6.43;4.60;;;5.30;99.90;;;;;;4950928;29;20486;-72
2022/01/17 11:45:54;;;;;;;4.90;4.40;;;5.30;99.90;;;;;;4953989;28;20869;-74
2022/01/17 11:48:27;;;;;;;5.30;4.60;;;5.40;99.90;;;;;;4951437;29;20482;-74
2022/01/17 11:50:55;;;;;;;4.00;3.67;;;5.50;99.90;;;;;;4953595;28;20440;-73
2022/01/17 11:53:23;;;;;;;6.97;5.00;;;5.50;99.90;;;;;;4953719;28;20420;-73
2022/01/17 11:55:50;;;;;;;4.87;4.20;;;5.60;99.90;;;;;;4948394;29;20473;-72
2022/01/17 11:58:21;;;;;;;4.80;4.00;;;5.60;99.90;;;;;;4953456;29;20418;-73
2022/01/17 12:00:47;;;;;;;5.77;4.17;;;5.70;99.90;;;;;;4951330;28;20466;-71
2022/01/17 12:03:18;;;;;;;4.23;3.83;;;5.70;99.90;;;;;;4953171;29;20501;-74
2022/01/17 12:05:44;;;;;;;5.53;4.43;;;5.70;99.90;;;;;;4951318;28;20534;-73
2022/01/17 12:08:13;;;;;;;4.10;3.70;;;5.80;99.90;;;;;;4950922;28;21163;-73
2022/01/17 12:10:42;;;;;;;5.47;4.20;;;5.80;99.90;;;;;;4950407;28;20447;-73
2022/01/17 12:13:16;;;;;;;4.87;4.37;;;5.90;99.90;;;;;;4952179;29;20419;-73
2022/01/17 12:15:58;;;;;;;5.70;4.40;;;5.90;99.90;;;;;;4951730;29;20390;-72
2022/01/17 12:18:32;;;;;;;5.50;5.00;;;5.90;99.90;;;;;;4946341;28;20439;-73
2022/01/17 12:21:18;;;;;;;4.60;4.20;;;6.10;99.90;;;;;;4953020;28;20442;-72
2022/01/17 12:23:44;;;;;;;4.83;4.00;;;6.10;99.90;;;;;;4950104;29;20444;-74
2022/01/17 12:26:29;;;;;;;4.10;3.63;;;6.10;99.90;;;;;;4951733;29;20506;-73
2022/01/17 12:28:56;;;;;;;4.60;4.20;;;6.20;99.90;;;;;;4949995;29;20432;-74
2022/01/17 12:31:40;;;;;;;4.70;4.27;;;6.20;99.90;;;;;;4952672;28;20462;-74
2022/01/17 12:34:24;;;;;;;5.77;4.73;;;6.20;99.90;;;;;;4949167;29;20441;-74
2022/01/17 12:36:54;;;;;;;6.30;5.00;;;6.10;99.90;;;;;;4952952;28;20456;-73
2022/01/17 12:39:25;;;;;;;5.80;4.30;;;6.10;99.90;;;;;;4951086;28;20447;-74
2022/01/17 12:41:57;;;;;;;5.23;4.73;;;6.20;99.90;;;;;;4950796;28;20471;-73
2022/01/17 12:44:25;;;;;;;4.23;3.93;;;6.20;99.90;;;;;;4952680;29;20430;-73
2022/01/17 12:46:56;;;;;;;6.07;4.70;;;6.10;99.90;;;;;;4951204;28;20482;-73
2022/01/17 12:49:22;;;;;;;5.93;5.33;;;6.20;99.90;;;;;;4956507;28;20436;-73
2022/01/17 12:51:50;;;;;;;7.50;5.30;;;6.10;99.90;;;;;;4952785;28;20465;-73
2022/01/17 12:54:20;;;;;;;9.20;6.80;;;6.20;99.90;;;;;;4947597;29;20202;-74
2022/01/17 12:56:48;;;;;;;4.60;4.20;;;6.20;99.90;;;;;;4954783;29;20866;-74
2022/01/17 12:59:17;;;;;;;4.70;4.20;;;6.20;99.90;;;;;;4956610;29;20431;-75
2022/01/17 13:01:48;;;;;;;7.97;5.20;;;6.30;99.90;;;;;;4954338;28;20422;-73
2022/01/17 13:04:16;;;;;;;4.07;3.63;;;6.30;99.90;;;;;;4955355;29;20444;-72
2022/01/17 13:06:43;;;;;;;4.63;4.13;;;6.30;99.90;;;;;;4954092;28;20890;-74
2022/01/17 13:09:14;;;;;;;4.97;4.57;;;6.40;99.90;;;;;;4949680;28;20463;-73
2022/01/17 13:11:42;;;;;;;5.57;4.50;;;6.40;99.90;;;;;;4955405;28;20444;-73
2022/01/17 13:14:08;;;;;;;6.30;4.60;;;6.30;99.90;;;;;;4954932;28;20502;-73
2022/01/17 13:16:35;;;;;;;3.10;2.80;;;6.20;99.90;;;;;;4952499;29;20424;-73
2022/01/17 13:19:03;;;;;;;4.67;4.20;;;6.10;99.90;;;;;;4955501;28;20435;-73
2022/01/17 13:21:29;;;;;;;3.30;3.00;;;6.10;99.90;;;;;;4957252;28;20584;-74
2022/01/17 13:24:00;;;;;;;4.17;3.50;;;6.00;99.90;;;;;;4954636;28;20984;-74
2022/01/17 13:26:34;;;;;;;5.27;4.00;;;6.10;99.90;;;;;;4953368;29;20790;-74
2022/01/17 13:29:00;;;;;;;4.93;3.33;;;6.00;99.90;;;;;;4956243;28;20577;-73
2022/01/17 13:31:30;;;;;;;9.93;3.90;;;5.90;99.90;;;;;;4953695;28;20497;-73
2022/01/17 13:34:16;;;;;;;4.57;4.07;;;6.00;99.90;;;;;;4951302;28;20450;-73
2022/01/17 13:36:43;;;;;;;4.80;3.40;;;6.00;99.90;;;;;;4945477;29;20463;-73
2022/01/17 13:39:12;;;;;;;4.83;3.20;;;6.00;99.90;;;;;;4954157;29;20470;-73
2022/01/17 13:41:43;;;;;;;4.27;3.87;;;5.90;99.90;;;;;;4952327;28;20438;-73
2022/01/17 13:44:09;;;;;;;4.67;3.53;;;5.90;99.90;;;;;;4955900;28;20423;-72
2022/01/17 13:46:55;;;;;;;3.37;2.77;;;5.90;99.90;;;;;;4955918;29;20470;-73
2022/01/17 13:49:21;;;;;;;9.00;4.17;;;6.00;99.90;;;;;;4951772;29;20477;-73
2022/01/17 13:51:47;;;;;;;3.47;3.17;;;6.00;99.90;;;;;;4955812;28;20944;-73
2022/01/17 13:54:24;;;;;;;5.87;3.83;;;6.00;99.90;;;;;;4949361;29;20201;-72
2022/01/17 13:56:50;;;;;;;3.97;3.10;;;6.00;99.90;;;;;;4955696;28;20170;-73
2022/01/17 13:59:16;;;;;;;6.13;3.10;;;6.00;99.90;;;;;;4953274;28;20461;-73
2022/01/17 14:01:42;;;;;;;3.33;3.00;;;5.90;99.90;;;;;;4953733;28;20210;-72
2022/01/17 14:04:29;;;;;;;5.80;2.93;;;6.00;99.90;;;;;;4955240;29;20470;-73
2022/01/17 14:06:58;;;;;;;2.90;2.10;;;6.00;99.90;;;;;;4953652;29;20437;-73
2022/01/17 14:09:31;;;;;;;2.20;2.00;;;6.10;99.90;;;;;;4953658;29;21011;-73
2022/01/17 14:11:56;;;;;;;4.27;1.87;;;6.20;99.90;;;;;;4954008;28;20459;-73
2022/01/17 14:14:25;;;;;;;3.90;2.97;;;6.20;99.90;;;;;;4955311;29;20810;-73
2022/01/17 14:16:51;;;;;;;2.40;2.20;;;6.30;99.90;;;;;;4953217;28;20210;-73
2022/01/17 14:19:17;;;;;;;3.00;2.40;;;6.30;99.90;;;;;;4955463;29;20781;-73
2022/01/17 14:21:59;;;;;;;3.10;2.33;;;6.30;99.90;;;;;;4953424;28;20789;-73
2022/01/17 14:24:26;;;;;;;3.93;2.50;;;6.20;99.90;;;;;;4950410;29;20425;-72
2022/01/17 14:26:54;;;;;;;3.80;2.87;;;6.20;99.90;;;;;;4954619;29;20562;-73
2022/01/17 14:29:29;;;;;;;2.60;2.40;;;6.30;99.90;;;;;;4953391;29;20451;-73
2022/01/17 14:31:57;;;;;;;5.17;2.43;;;6.30;99.90;;;;;;4955053;28;20485;-72
2022/01/17 14:34:26;;;;;;;5.70;3.37;;;6.20;99.90;;;;;;4950869;28;20436;-73
2022/01/17 14:37:19;;;;;;;3.00;2.70;;;6.20;99.90;;;;;;4954878;29;20992;-73
2022/01/17 14:39:57;;;;;;;3.60;3.20;;;6.20;99.90;;;;;;4949197;29;20471;-73
2022/01/17 14:42:30;;;;;;;5.23;2.63;;;6.20;99.90;;;;;;4954888;28;20406;-73
2022/01/17 14:44:59;;;;;;;7.97;2.60;;;6.10;99.90;;;;;;4952746;28;20441;-73
2022/01/17 14:47:27;;;;;;;4.30;3.53;;;6.10;99.90;;;;;;4951337;29;20553;-73
2022/01/17 14:49:56;;;;;;;4.23;2.67;;;6.10;99.90;;;;;;4953215;28;20946;-73
2022/01/17 14:52:25;;;;;;;3.10;2.90;;;6.10;99.90;;;;;;4935880;29;20507;-73
2022/01/17 15:00:12;;;;;;;4.53;3.37;;;5.90;99.90;;;;;;4954600;29;20474;-73
2022/01/17 15:02:53;;;;;;;5.57;3.00;;;5.90;99.90;;;;;;4952153;28;20470;-73
2022/01/17 15:05:19;;;;;;;4.40;2.77;;;5.80;99.90;;;;;;4954685;28;20833;-73
2022/01/17 15:07:46;;;;;;;3.13;2.83;;;5.90;99.90;;;;;;4952764;28;20791;-74
2022/01/17 15:10:12;;;;;;;4.17;3.63;;;5.90;99.90;;;;;;4947130;28;20809;-74
2022/01/17 15:12:37;;;;;;;3.80;3.37;;;5.90;99.90;;;;;;4953412;28;20435;-73
2022/01/17 15:15:03;;;;;;;3.73;3.43;;;5.90;99.90;;;;;;4953048;29;20340;-73
2022/01/17 15:17:33;;;;;;;3.10;2.77;;;5.80;99.90;;;;;;4954658;29;20736;-74
2022/01/17 15:19:58;;;;;;;3.13;2.90;;;5.80;99.90;;;;;;4950524;28;20521;-74
2022/01/17 15:22:24;;;;;;;4.67;3.60;;;5.80;99.90;;;;;;4954211;28;20522;-74
2022/01/17 15:24:49;;;;;;;5.00;4.33;;;5.80;99.90;;;;;;4951668;29;20195;-73
2022/01/17 15:27:16;;;;;;;3.70;3.40;;;5.70;99.90;;;;;;4954299;29;20689;-74
2022/01/17 15:29:43;;;;;;;5.40;3.40;;;5.70;99.90;;;;;;4953606;28;20547;-73
2022/01/17 15:32:11;;;;;;;4.50;3.80;;;5.60;99.90;;;;;;4950344;28;20486;-74
2022/01/17 15:34:39;;;;;;;4.67;3.30;;;5.60;99.90;;;;;;4949463;29;20961;-75
2022/01/17 15:37:06;;;;;;;5.00;3.00;;;5.50;99.90;;;;;;4944859;29;20940;-73
2022/01/17 15:39:32;;;;;;;6.10;4.40;;;5.50;99.90;;;;;;4951868;29;20446;-74
2022/01/17 15:42:03;;;;;;;4.10;3.70;;;5.50;99.90;;;;;;4943740;28;20470;-74
2022/01/17 15:44:33;;;;;;;5.60;4.07;;;5.50;99.90;;;;;;4934528;29;20414;-72
2022/01/17 15:47:00;;;;;;;4.20;3.60;;;5.50;99.90;;;;;;4934347;29;20611;-73
2022/01/17 15:49:26;;;;;;;4.50;4.10;;;5.50;99.90;;;;;;4953614;28;20441;-74
2022/01/17 15:51:51;;;;;;;5.70;3.77;;;5.40;99.90;;;;;;4953399;28;20434;-73
2022/01/17 15:54:17;;;;;;;3.90;3.57;;;5.40;99.90;;;;;;4947054;29;20567;-73
2022/01/17 15:56:43;;;;;;;4.93;4.30;;;5.40;99.90;;;;;;4951283;29;20203;-72
2022/01/17 15:59:08;;;;;;;4.43;3.93;;;5.40;99.90;;;;;;4951402;29;20300;-75
2022/01/17 16:01:34;;;;;;;6.43;4.80;;;5.40;99.90;;;;;;4953450;28;20198;-75
2022/01/17 16:04:00;;;;;;;7.00;5.07;;;5.40;99.90;;;;;;4950926;28;20718;-74
2022/01/17 16:06:27;;;;;;;4.57;4.17;;;5.50;99.90;;;;;;4950330;28;20270;-73
2022/01/17 16:08:54;;;;;;;5.43;4.93;;;5.60;99.90;;;;;;4953016;28;20437;-73
2022/01/17 16:11:21;;;;;;;9.63;4.83;;;5.60;99.90;;;;;;4949108;28;20827;-73
2022/01/17 16:13:47;;;;;;;6.10;5.03;;;5.70;99.90;;;;;;4953048;29;20456;-73
2022/01/17 16:16:13;;;;;;;5.40;4.90;;;5.80;99.90;;;;;;4951001;29;20466;-73
2022/01/17 16:18:40;;;;;;;4.43;4.03;;;5.80;99.90;;;;;;4950948;28;20456;-73
2022/01/17 16:21:06;;;;;;;11.37;5.30;;;5.80;99.90;;;;;;4951706;28;20467;-73
2022/01/17 16:23:32;;;;;;;7.83;5.03;;;5.80;99.90;;;;;;4950954;29;20916;-73
2022/01/17 16:25:57;;;;;;;7.90;6.00;;;5.60;99.90;;;;;;4950752;29;20257;-73
2022/01/17 16:28:23;;;;;;;7.87;6.77;;;5.70;99.90;;;;;;4949709;29;20716;-73
2022/01/17 16:30:51;;;;;;;6.63;5.63;;;5.60;99.90;;;;;;4952826;28;20258;-74
2022/01/17 16:33:17;;;;;;;7.33;6.47;;;5.60;99.90;;;;;;4947075;29;20207;-72
2022/01/17 16:35:42;;;;;;;8.37;6.00;;;5.50;99.90;;;;;;4951926;29;21071;-73
2022/01/17 16:38:08;;;;;;;14.30;7.27;;;5.40;99.90;;;;;;4952346;29;20436;-73
2022/01/17 16:40:34;;;;;;;6.73;5.50;;;5.40;99.90;;;;;;4947081;28;20182;-73
2022/01/17 16:43:00;;;;;;;8.87;6.67;;;5.40;99.90;;;;;;4951497;29;20194;-73
2022/01/17 16:45:25;;;;;;;8.40;5.63;;;5.40;99.90;;;;;;4951079;29;20470;-74
2022/01/17 16:47:51;;;;;;;8.63;6.47;;;5.40;99.90;;;;;;4953299;29;20541;-71
2022/01/17 16:50:23;;;;;;;9.40;6.13;;;5.30;99.90;;;;;;4951545;29;20322;-73
2022/01/17 16:52:49;;;;;;;11.47;6.53;;;5.30;99.90;;;;;;4950998;28;20727;-74
2022/01/17 16:55:15;;;;;;;14.60;9.50;;;5.30;99.90;;;;;;4950273;29;20454;-72
2022/01/17 16:57:41;;;;;;;14.87;7.83;;;5.20;99.90;;;;;;4950700;29;20398;-73
2022/01/17 17:00:07;;;;;;;9.37;6.40;;;5.20;99.90;;;;;;4952913;29;20425;-73
2022/01/17 17:02:33;;;;;;;10.57;6.63;;;5.30;99.90;;;;;;4948002;28;20587;-74
2022/01/17 17:04:58;;;;;;;9.40;6.37;;;5.20;99.90;;;;;;4952884;29;20415;-72
2022/01/17 17:07:24;;;;;;;12.03;6.60;;;5.20;99.90;;;;;;4951353;29;20296;-74
2022/01/17 17:09:50;;;;;;;12.83;8.80;;;5.20;99.90;;;;;;4950931;28;20668;-73
2022/01/17 17:12:16;;;;;;;9.80;7.67;;;5.30;99.90;;;;;;4952911;28;20278;-74
2022/01/17 17:14:42;;;;;;;13.57;8.47;;;5.20;99.90;;;;;;4948899;29;20674;-73
2022/01/17 17:17:07;;;;;;;12.90;7.90;;;5.20;99.90;;;;;;4950334;29;20424;-73
2022/01/17 17:19:33;;;;;;;10.37;7.43;;;5.20;99.90;;;;;;4950216;29;20198;-73
2022/01/17 17:21:58;;;;;;;9.50;7.13;;;5.10;99.90;;;;;;4952866;28;20571;-73
2022/01/17 17:24:25;;;;;;;11.63;8.30;;;5.10;99.90;;;;;;4947806;29;20217;-74
2022/01/17 17:26:50;;;;;;;11.30;8.43;;;5.00;99.90;;;;;;4944968;29;20596;-73
2022/01/17 17:29:17;;;;;;;14.37;8.40;;;5.00;99.90;;;;;;4947376;29;20420;-74
2022/01/17 17:31:44;;;;;;;15.37;8.90;;;5.00;99.90;;;;;;4944216;28;20470;-72
2022/01/17 17:34:10;;;;;;;15.93;8.33;;;5.00;99.90;;;;;;4952973;29;20983;-72
2022/01/17 17:36:36;;;;;;;14.30;9.10;;;4.90;99.90;;;;;;4952827;29;20444;-72
2022/01/17 17:39:04;;;;;;;14.17;9.67;;;4.90;99.90;;;;;;4953038;29;20414;-72
2022/01/17 17:41:32;;;;;;;12.80;8.50;;;4.80;99.90;;;;;;4947807;28;20427;-73
2022/01/17 17:43:58;;;;;;;14.90;9.00;;;4.90;99.90;;;;;;4944727;28;20493;-72
2022/01/17 17:46:25;;;;;;;12.37;8.53;;;4.90;99.90;;;;;;4953260;28;20525;-72
2022/01/17 17:48:51;;;;;;;14.73;9.43;;;4.90;99.90;;;;;;4947810;29;20541;-71